Watson, Minnesota
Current Conditions -  °F | °C
As of 2:34 PM on Friday 28 Nov 2014 (Local Time) from KMVE Reporting Station
Clear Clear  
Wind Chill:   Ceiling: Unl
Heat Index: 19°   Visibility: 10mi
Dew Point: 16°   Wind: 9mph
Humidity: 86%   Direction: 140°SE
Pressure: 29.77"   Gusts: NA
Location:  45.01°N, 95.8°W
Report Text: KMVE 282034Z AUTO 14008KT 10SM CLR M07/M09 A2977 RMK AO2
Loading
Personal Weather Stations






























Interactive Weather Map New forecast layout! Learn more

10-Day Weather Forecast

Advertisements
Track Severe Weather on mobile